Time;durP1;ratioP1;P1;durP2;ratioP2;P2;SDS_P1;SDS_P2;PMS_P1;PMS_P2;Temp;Humidity;BMP_temperature;BMP_pressure;BME280_temperature;BME280_humidity;BME280_pressure;Samples;Min_cycle;Max_cycle;Signal;HPM_P1;HPM_P2
2021/12/27 00:00:47;;;;;;;107.07;54.20;;;;;;;-0.94;65.59;94208.94;1640892;85;21135;-54
2021/12/27 00:03:14;;;;;;;94.20;49.30;;;;;;;-0.98;65.64;94206.83;1663975;85;21639;-54
2021/12/27 00:05:41;;;;;;;86.53;48.00;;;;;;;-0.98;66.14;94210.88;1665210;85;21434;-54
2021/12/27 00:08:10;;;;;;;92.17;48.78;;;;;;;-0.83;66.21;94211.03;1646241;85;21086;-55
2021/12/27 00:10:38;;;;;;;103.17;52.35;;;;;;;-0.63;65.71;94209.48;1628698;85;21551;-55
2021/12/27 00:13:07;;;;;;;103.35;52.67;;;;;;;-0.59;65.23;94215.63;1635438;85;21119;-54
2021/12/27 00:15:39;;;;;;;97.17;51.00;;;;;;;-0.65;65.10;94207.72;1653974;85;21053;-54
2021/12/27 00:18:06;;;;;;;99.17;49.93;;;;;;;-0.78;65.12;94207.36;1655511;84;21021;-55
2021/12/27 00:20:37;;;;;;;104.58;54.08;;;;;;;-0.87;65.37;94211.05;1653153;84;21075;-53
2021/12/27 00:23:07;;;;;;;92.25;51.55;;;;;;;-0.85;65.79;94212.00;1658383;85;21060;-54
2021/12/27 00:25:33;;;;;;;90.40;50.00;;;;;;;-0.85;65.41;94200.63;1658041;85;21575;-54
2021/12/27 00:28:01;;;;;;;99.42;54.10;;;;;;;-0.95;65.57;94197.36;1666807;85;21219;-55
2021/12/27 00:30:31;;;;;;;82.57;45.17;;;;;;;-0.98;66.05;94206.83;1640651;85;21080;-53
2021/12/27 00:32:58;;;;;;;96.32;51.80;;;;;;;-0.90;65.88;94201.59;1662468;85;21041;-53
2021/12/27 00:35:26;;;;;;;88.67;49.30;;;;;;;-0.96;65.99;94200.46;1657129;85;20977;-54
2021/12/27 00:37:53;;;;;;;92.27;49.45;;;;;;;-0.87;66.23;94198.91;1659732;85;20977;-53
2021/12/27 00:40:22;;;;;;;98.07;56.28;;;;;;;-0.70;65.82;94198.67;1651202;85;21567;-53
2021/12/27 00:42:50;;;;;;;100.22;52.25;;;;;;;-0.59;65.41;94203.48;1637577;85;20965;-53
2021/12/27 00:45:21;;;;;;;88.82;47.53;;;;;;;-0.58;65.33;94200.97;1656416;84;21076;-54
2021/12/27 00:47:49;;;;;;;82.65;47.33;;;;;;;-0.56;64.91;94206.16;1650114;85;20989;-54
2021/12/27 00:50:16;;;;;;;86.10;49.08;;;;;;;-0.73;64.77;94199.45;1671065;85;21052;-54
2021/12/27 00:52:43;;;;;;;88.87;54.33;;;;;;;-0.90;65.14;94195.64;1655801;85;21460;-55
2021/12/27 00:55:12;;;;;;;87.55;49.85;;;;;;;-1.06;65.37;94191.78;1646416;84;21516;-55
2021/12/27 00:57:40;;;;;;;89.47;47.30;;;;;;;-1.16;65.95;94187.17;1655776;85;21449;-54
2021/12/27 01:00:14;;;;;;;82.22;46.53;;;;;;;-1.13;66.46;94192.55;1652140;85;21453;-54
2021/12/27 01:02:40;;;;;;;74.92;44.03;;;;;;;-0.97;66.56;94198.92;1649721;85;21480;-54
2021/12/27 01:05:08;;;;;;;74.92;44.23;;;;;;;-0.81;66.25;94195.99;1670915;85;21150;-54
2021/12/27 01:07:35;;;;;;;75.45;43.92;;;;;;;-0.69;65.82;94201.56;1663978;85;21045;-54
2021/12/27 01:10:31;;;;;;;68.22;41.23;;;;;;;-0.68;65.42;94198.48;1645541;85;21036;-54
2021/12/27 01:13:03;;;;;;;65.25;36.70;;;;;;;-0.74;65.29;94190.56;1650989;85;20984;-54
2021/12/27 01:17:49;;;;;;;69.17;38.55;;;;;;;-0.90;65.60;94190.23;1664318;85;21099;-54
2021/12/27 01:20:22;;;;;;;74.12;42.60;;;;;;;-0.90;65.64;94186.75;1643777;85;21077;-54
2021/12/27 01:22:51;;;;;;;;;;;;;;;-0.94;66.01;94182.70;1672918;85;21096;-54
2021/12/27 01:25:18;;;;;;;85.87;45.55;;;;;;;-0.84;65.98;94183.84;1656440;85;20444;-54
2021/12/27 01:27:47;;;;;;;85.17;47.10;;;;;;;-0.71;65.87;94187.68;1660186;85;21065;-54
2021/12/27 01:30:16;;;;;;;82.05;45.20;;;;;;;-0.64;65.34;94187.66;1660064;85;21156;-54
2021/12/27 01:32:48;;;;;;;73.25;39.95;;;;;;;-0.67;65.27;94187.09;1645657;85;20981;-54
2021/12/27 01:35:15;;;;;;;73.60;41.68;;;;;;;-0.67;65.34;94185.73;1663291;85;21076;-55
2021/12/27 01:37:42;;;;;;;71.87;39.70;;;;;;;-0.74;65.25;94183.06;1638703;86;21105;-54
2021/12/27 01:40:10;;;;;;;82.02;47.10;;;;;;;-0.81;65.23;94185.79;1614826;84;20973;-54
2021/12/27 01:42:39;;;;;;;76.40;45.12;;;;;;;-0.95;65.38;94183.11;1685086;84;21169;-54
2021/12/27 01:45:09;;;;;;;82.25;44.53;;;;;;;-1.00;65.96;94184.86;1658702;84;21453;-55
2021/12/27 01:47:36;;;;;;;68.37;42.58;;;;;;;-1.01;65.79;94180.59;1678009;84;21013;-54
2021/12/27 01:50:04;;;;;;;66.15;38.15;;;;;;;-1.09;65.92;94177.16;1668026;85;21107;-56
2021/12/27 01:52:35;;;;;;;74.90;41.35;;;;;;;-1.12;66.05;94173.85;1662961;85;21040;-55
2021/12/27 01:55:03;;;;;;;79.45;44.83;;;;;;;-1.06;66.68;94178.28;1648890;85;21929;-55
2021/12/27 01:57:33;;;;;;;73.78;43.92;;;;;;;-0.94;66.53;94177.30;1653227;85;21088;-54
2021/12/27 02:00:05;;;;;;;79.17;43.68;;;;;;;-0.81;66.27;94175.74;1668699;85;20982;-54
2021/12/27 02:02:33;;;;;;;79.25;43.23;;;;;;;-0.77;65.83;94173.80;1673154;85;21021;-55
2021/12/27 02:05:01;;;;;;;84.52;44.35;;;;;;;-0.79;65.83;94176.72;1674026;85;20967;-55
2021/12/27 02:07:28;;;;;;;91.60;48.40;;;;;;;-0.78;65.88;94175.56;1664690;85;21369;-55
2021/12/27 02:10:04;;;;;;;95.85;49.15;;;;;;;-0.82;65.83;94172.07;1656190;85;21016;-56
2021/12/27 02:12:33;;;;;;;94.60;49.48;;;;;;;-0.85;65.91;94172.85;1648920;85;20989;-54
2021/12/27 02:15:07;;;;;;;102.72;52.65;;;;;;;-0.88;65.84;94166.89;1652576;85;21040;-53
2021/12/27 02:17:32;;;;;;;92.95;49.90;;;;;;;-0.91;65.97;94173.85;1656988;85;21540;-54
2021/12/27 02:20:00;;;;;;;98.67;52.62;;;;;;;-0.94;66.16;94167.09;1623924;85;20964;-54
2021/12/27 02:22:29;;;;;;;95.25;48.90;;;;;;;-0.94;66.34;94173.84;1657060;85;21031;-54
2021/12/27 02:24:59;;;;;;;93.67;48.35;;;;;;;-0.98;66.20;94168.45;1664550;85;20981;-54
2021/12/27 02:27:28;;;;;;;92.17;49.23;;;;;;;-0.96;66.70;94173.47;1674642;84;21039;-54
2021/12/27 02:29:56;;;;;;;84.58;46.95;;;;;;;-0.89;66.52;94174.80;1670307;85;21020;-54
2021/12/27 02:32:25;;;;;;;82.20;45.90;;;;;;;-0.79;66.65;94172.67;1632154;85;21560;-55
2021/12/27 02:34:51;;;;;;;80.72;46.37;;;;;;;-0.74;66.23;94173.02;1659389;85;21695;-55
2021/12/27 02:37:20;;;;;;;90.80;48.55;;;;;;;-0.82;65.82;94171.50;1659306;85;21460;-55
2021/12/27 02:39:47;;;;;;;85.45;43.42;;;;;;;-0.94;66.05;94176.55;1662581;85;20977;-54
2021/12/27 02:42:21;;;;;;;73.10;42.75;;;;;;;-1.02;66.21;94170.95;1671584;85;20969;-55
2021/12/27 02:44:48;;;;;;;77.60;42.80;;;;;;;-1.08;66.37;94175.21;1654423;84;21159;-54
2021/12/27 02:47:15;;;;;;;84.97;44.45;;;;;;;-1.15;66.61;94169.83;1659492;85;21000;-55
2021/12/27 02:49:42;;;;;;;88.92;47.90;;;;;;;-1.10;66.72;94172.13;1665843;84;21123;-54
2021/12/27 02:52:11;;;;;;;98.05;50.95;;;;;;;-1.10;66.63;94173.48;1654299;85;21504;-54
2021/12/27 02:54:42;;;;;;;100.33;54.88;;;;;;;-1.12;66.83;94166.35;1656060;85;21118;-53
2021/12/27 02:57:10;;;;;;;94.67;51.45;;;;;;;-1.08;66.92;94163.84;1663009;85;21160;-55
2021/12/27 02:59:40;;;;;;;108.12;58.35;;;;;;;-1.02;67.06;94169.60;1677192;84;20961;-54
2021/12/27 03:02:06;;;;;;;111.15;58.52;;;;;;;-0.90;67.03;94167.86;1630837;85;21581;-54
2021/12/27 03:04:36;;;;;;;96.00;50.30;;;;;;;-0.88;66.59;94170.94;1659027;84;21024;-54
2021/12/27 03:07:04;;;;;;;79.95;43.78;;;;;;;-0.85;66.69;94174.20;1669477;85;21065;-55
2021/12/27 03:09:38;;;;;;;79.75;44.63;;;;;;;-0.85;66.41;94171.50;1627960;86;21833;-54
2021/12/27 03:12:13;;;;;;;86.50;45.35;;;;;;;-0.96;66.27;94163.42;1650576;85;20985;-54
2021/12/27 03:14:40;;;;;;;83.75;44.93;;;;;;;-1.00;66.89;94165.96;1668710;85;20984;-54
2021/12/27 03:17:09;;;;;;;94.50;51.18;;;;;;;-0.86;67.02;94159.95;1662222;85;20985;-54
2021/12/27 03:19:35;;;;;;;86.75;47.03;;;;;;;-0.79;66.47;94155.87;1646031;85;21092;-54
2021/12/27 03:22:03;;;;;;;96.85;55.05;;;;;;;-0.75;66.70;94163.97;1674045;85;21001;-56
2021/12/27 03:24:30;;;;;;;94.07;48.85;;;;;;;-0.63;66.53;94162.97;1657458;85;21029;-55
2021/12/27 03:26:57;;;;;;;93.37;51.08;;;;;;;-0.54;66.15;94162.56;1657516;85;21080;-55
2021/12/27 03:29:31;;;;;;;128.20;65.75;;;;;;;-0.57;65.78;94162.75;1590681;85;21206;-54
2021/12/27 03:31:58;;;;;;;99.17;52.25;;;;;;;-0.64;65.72;94169.53;1652359;85;21131;-54
2021/12/27 03:34:25;;;;;;;87.57;47.67;;;;;;;-0.71;65.81;94166.08;1649801;85;21084;-53
2021/12/27 03:36:55;;;;;;;80.92;45.20;;;;;;;-0.79;66.12;94164.57;1635532;85;21135;-53
2021/12/27 03:39:22;;;;;;;72.55;41.48;;;;;;;-0.75;66.30;94168.03;1643569;85;21001;-55
2021/12/27 03:41:48;;;;;;;84.35;45.38;;;;;;;-0.78;65.73;94165.52;1654648;85;21469;-54
2021/12/27 03:44:15;;;;;;;75.28;44.13;;;;;;;-0.89;66.26;94170.19;1673833;85;21073;-55
2021/12/27 03:46:43;;;;;;;73.22;39.92;;;;;;;-0.82;66.26;94169.38;1663814;85;21161;-54
2021/12/27 03:49:13;;;;;;;69.75;37.60;;;;;;;-0.79;66.12;94171.32;1671621;85;21005;-54
2021/12/27 03:51:43;;;;;;;62.50;37.25;;;;;;;-0.83;65.83;94169.19;1629715;85;21250;-55
2021/12/27 03:54:10;;;;;;;60.05;36.53;;;;;;;-0.83;66.43;94170.53;1664737;85;21080;-53
2021/12/27 03:56:41;;;;;;;61.53;35.30;;;;;;;-0.78;66.08;94174.20;1666523;85;20993;-55
2021/12/27 03:59:22;;;;;;;59.15;33.78;;;;;;;-0.75;65.95;94176.13;1633831;87;21518;-53
2021/12/27 04:01:47;;;;;;;59.10;35.23;;;;;;;-0.89;65.74;94168.05;1661203;85;20977;-54
2021/12/27 04:04:14;;;;;;;67.97;39.48;;;;;;;-1.05;66.07;94175.78;1629775;85;21061;-54
2021/12/27 04:06:41;;;;;;;62.13;36.17;;;;;;;-1.14;66.56;94172.13;1648533;85;21023;-55
2021/12/27 04:09:09;;;;;;;73.30;38.28;;;;;;;-1.10;66.46;94174.83;1660227;85;21041;-55
2021/12/27 04:11:36;;;;;;;74.82;38.83;;;;;;;-1.08;66.75;94181.39;1667492;85;21170;-54
2021/12/27 04:14:03;;;;;;;66.50;37.63;;;;;;;-1.04;66.48;94174.62;1652393;85;21060;-55
2021/12/27 04:16:31;;;;;;;62.85;36.93;;;;;;;-1.12;66.69;94174.45;1653809;85;20992;-54
2021/12/27 04:18:58;;;;;;;62.48;36.05;;;;;;;-1.05;67.21;94177.13;1657826;85;21009;-55
2021/12/27 04:21:27;;;;;;;64.40;35.88;;;;;;;-0.87;67.00;94176.52;1661901;85;20993;-55
2021/12/27 04:23:53;;;;;;;62.80;37.88;;;;;;;-0.82;66.27;94170.72;1632367;85;21123;-54
2021/12/27 04:26:22;;;;;;;65.72;38.88;;;;;;;-0.95;66.11;94172.31;1670944;85;20973;-54
2021/12/27 04:28:50;;;;;;;70.78;39.08;;;;;;;-1.11;66.37;94170.00;1657865;85;21108;-54
2021/12/27 04:31:18;;;;;;;145.10;70.75;;;;;;;-1.15;66.83;94167.13;1660678;85;21028;-54
2021/12/27 04:33:45;;;;;;;146.05;75.60;;;;;;;-1.08;67.30;94165.77;1658778;85;21574;-54
2021/12/27 04:36:12;;;;;;;128.35;67.03;;;;;;;-0.92;67.08;94167.48;1660944;85;21909;-54
2021/12/27 04:38:39;;;;;;;84.60;49.30;;;;;;;-0.80;66.77;94171.13;1654751;85;21195;-55
2021/12/27 04:41:06;;;;;;;81.25;44.20;;;;;;;-0.80;66.18;94171.13;1666135;85;21086;-56
2021/12/27 04:43:33;;;;;;;67.55;40.65;;;;;;;-0.99;66.17;94162.11;1654517;85;21073;-54
2021/12/27 04:46:00;;;;;;;67.90;41.30;;;;;;;-1.08;66.86;94165.77;1655248;85;21452;-55
2021/12/27 04:48:27;;;;;;;73.15;42.85;;;;;;;-1.00;67.00;94159.97;1666048;85;21230;-53
2021/12/27 04:50:55;;;;;;;77.22;42.78;;;;;;;-0.90;66.87;94162.45;1646682;85;20964;-55
2021/12/27 04:53:22;;;;;;;77.40;44.10;;;;;;;-0.79;66.58;94163.22;1645495;84;22348;-55
2021/12/27 04:55:51;;;;;;;89.83;51.08;;;;;;;-0.81;66.34;94164.95;1627056;85;21124;-55
2021/12/27 04:58:21;;;;;;;93.70;50.03;;;;;;;-0.80;66.50;94167.08;1661623;85;20965;-54
2021/12/27 05:00:48;;;;;;;102.45;56.50;;;;;;;-0.82;66.52;94172.07;1653372;85;21810;-55
2021/12/27 05:03:15;;;;;;;131.47;70.45;;;;;;;-0.83;66.72;94170.53;1673092;85;21008;-54
2021/12/27 05:05:44;;;;;;;95.40;52.40;;;;;;;-0.82;66.39;94167.45;1647936;85;21020;-54
2021/12/27 05:08:12;;;;;;;82.17;44.40;;;;;;;-0.89;66.21;94177.50;1660162;85;21025;-54
2021/12/27 05:10:39;;;;;;;91.42;47.45;;;;;;;-1.00;66.56;94175.41;1668468;85;21429;-53
2021/12/27 05:13:08;;;;;;;77.60;43.23;;;;;;;-0.96;66.80;94174.82;1670028;85;21161;-54
2021/12/27 05:15:35;;;;;;;88.95;47.88;;;;;;;-0.89;66.53;94184.24;1641559;85;21024;-54
2021/12/27 05:18:03;;;;;;;85.70;47.00;;;;;;;-0.96;66.54;94185.62;1619060;85;20980;-54
2021/12/27 05:20:30;;;;;;;82.33;45.30;;;;;;;-0.93;66.84;94187.53;1649480;85;21088;-54
2021/12/27 05:22:57;;;;;;;83.25;45.73;;;;;;;-0.85;66.84;94190.41;1648472;85;21017;-54
2021/12/27 05:25:24;;;;;;;92.42;48.15;;;;;;;-0.81;66.48;94187.89;1628904;86;21157;-54
2021/12/27 05:27:50;;;;;;;79.55;45.50;;;;;;;-0.73;66.89;94196.75;1648143;85;21596;-53
2021/12/27 05:30:17;;;;;;;71.45;44.03;;;;;;;-0.62;66.52;94194.81;1654482;85;21038;-54
2021/12/27 05:32:44;;;;;;;82.12;42.88;;;;;;;-0.60;66.11;94189.19;1651824;85;21056;-55
2021/12/27 05:35:11;;;;;;;75.72;41.15;;;;;;;-0.66;65.88;94181.31;1653560;85;21039;-54
2021/12/27 05:37:42;;;;;;;51.40;31.40;;;;;;;-0.74;66.14;94179.02;1655538;85;21108;-54
2021/12/27 05:40:14;;;;;;;54.15;32.30;;;;;;;-0.77;66.07;94180.55;1667723;85;21001;-55
2021/12/27 05:42:40;;;;;;;75.45;44.15;;;;;;;-0.75;65.99;94184.98;1661567;85;21714;-54
2021/12/27 05:45:10;;;;;;;83.90;47.00;;;;;;;-0.77;66.09;94183.84;1624856;85;21003;-53
2021/12/27 05:47:38;;;;;;;92.25;50.08;;;;;;;-0.80;66.15;94177.28;1655426;85;20996;-54
2021/12/27 05:50:06;;;;;;;93.22;50.90;;;;;;;-0.83;66.21;94173.23;1655234;85;21141;-53
2021/12/27 05:52:33;;;;;;;123.65;68.45;;;;;;;-0.87;66.15;94168.42;1648164;85;21005;-54
2021/12/27 05:55:00;;;;;;;113.22;61.10;;;;;;;-0.98;66.18;94179.24;1665004;85;21639;-53
2021/12/27 05:57:28;;;;;;;116.12;60.35;;;;;;;-1.06;66.43;94178.28;1624391;85;20989;-53
2021/12/27 05:59:54;;;;;;;112.35;58.63;;;;;;;-1.11;66.66;94178.69;1657863;85;21029;-53
2021/12/27 06:02:21;;;;;;;107.95;56.58;;;;;;;-1.13;66.99;94177.71;1654095;85;21203;-55
2021/12/27 06:04:48;;;;;;;100.72;56.75;;;;;;;-1.05;67.16;94179.83;1659904;85;21789;-54
2021/12/27 06:07:15;;;;;;;90.12;51.28;;;;;;;-0.92;66.90;94185.02;1670038;85;21065;-54
2021/12/27 06:09:42;;;;;;;103.38;53.60;;;;;;;-0.84;66.71;94190.02;1650713;85;21005;-54
2021/12/27 06:12:10;;;;;;;106.05;56.35;;;;;;;-0.72;66.35;94186.92;1655316;85;20985;-53
2021/12/27 06:14:38;;;;;;;104.78;58.23;;;;;;;-0.71;66.11;94192.52;1661024;85;21803;-54
2021/12/27 06:17:04;;;;;;;101.25;54.25;;;;;;;-0.67;66.42;94187.09;1647455;85;21033;-53
2021/12/27 06:19:31;;;;;;;117.93;62.90;;;;;;;-0.56;66.23;94189.19;1620105;85;21011;-53
2021/12/27 06:22:00;;;;;;;125.02;65.67;;;;;;;-0.48;66.23;94190.70;1649336;85;20982;-54
2021/12/27 06:24:27;;;;;;;129.72;68.17;;;;;;;-0.40;65.58;94194.94;1649570;84;21132;-55
2021/12/27 06:26:56;;;;;;;127.15;69.00;;;;;;;-0.50;65.36;94190.32;1608654;84;21503;-55
2021/12/27 06:29:23;;;;;;;121.40;65.20;;;;;;;-0.65;65.65;94188.25;1665431;85;21647;-54
2021/12/27 06:31:52;;;;;;;116.20;65.92;;;;;;;-0.67;65.81;94183.03;1657733;85;21155;-54
2021/12/27 06:34:19;;;;;;;108.65;60.20;;;;;;;-0.72;65.77;94192.89;1658511;85;21437;-54
2021/12/27 06:36:47;;;;;;;105.80;59.90;;;;;;;-0.81;65.82;94190.59;1671190;85;21020;-54
2021/12/27 06:39:14;;;;;;;94.40;51.55;;;;;;;-0.85;66.24;94191.75;1658545;85;21243;-54
2021/12/27 06:41:41;;;;;;;78.35;44.00;;;;;;;-0.83;66.16;94194.27;1655616;85;21261;-55
2021/12/27 06:44:08;;;;;;;69.67;40.98;;;;;;;-0.79;66.40;94185.57;1650628;85;21024;-54
2021/12/27 06:46:35;;;;;;;92.57;49.63;;;;;;;-0.68;66.20;94185.55;1666138;85;21194;-53
2021/12/27 06:49:03;;;;;;;104.43;55.63;;;;;;;-0.69;65.91;94185.36;1652723;85;21140;-54
2021/12/27 06:51:33;;;;;;;101.55;57.23;;;;;;;-0.67;66.35;94187.88;1660336;85;21906;-55
2021/12/27 06:54:00;;;;;;;129.75;67.50;;;;;;;-0.48;66.22;94184.73;1653254;85;20957;-54
2021/12/27 06:56:27;;;;;;;90.03;51.50;;;;;;;-0.32;65.89;94186.98;1658636;85;21111;-54
2021/12/27 06:58:54;;;;;;;179.40;84.75;;;;;;;-0.25;65.05;94190.44;1655218;85;21575;-54
2021/12/27 07:01:20;;;;;;;189.52;90.38;;;;;;;-0.23;65.20;94181.95;1656676;85;21011;-54
2021/12/27 07:03:47;;;;;;;148.35;75.62;;;;;;;-0.13;64.90;94187.30;1662783;85;21137;-55
2021/12/27 07:06:14;;;;;;;165.52;84.62;;;;;;;-0.07;64.41;94183.02;1673263;85;21057;-54
2021/12/27 07:08:41;;;;;;;128.82;69.12;;;;;;;-0.08;64.28;94184.78;1627164;85;21242;-55
2021/12/27 07:11:08;;;;;;;117.42;60.80;;;;;;;-0.09;64.16;94183.22;1647852;85;21093;-54
2021/12/27 07:13:36;;;;;;;115.40;62.23;;;;;;;-0.14;64.00;94180.36;1656528;85;21519;-55
2021/12/27 07:16:07;;;;;;;126.92;70.47;;;;;;;-0.21;64.21;94174.22;1641833;85;21208;-54
2021/12/27 07:18:33;;;;;;;132.85;74.00;;;;;;;-0.21;64.24;94177.67;1661110;85;21036;-56
2021/12/27 07:21:00;;;;;;;156.78;84.62;;;;;;;-0.07;64.44;94186.32;1646315;85;21020;-54
2021/12/27 07:23:30;;;;;;;172.07;91.90;;;;;;;0.03;63.87;94189.72;1657955;85;21489;-55
2021/12/27 07:25:57;;;;;;;190.55;103.55;;;;;;;0.07;63.67;94181.01;1666679;85;21022;-56
2021/12/27 07:28:28;;;;;;;207.50;110.52;;;;;;;0.10;63.54;94181.59;1657870;85;21150;-54
2021/12/27 07:30:56;;;;;;;212.95;109.35;;;;;;;0.15;63.50;94177.13;1647734;85;21041;-54
2021/12/27 07:33:22;;;;;;;192.65;106.15;;;;;;;0.22;63.23;94174.97;1658717;84;21131;-57
2021/12/27 07:35:49;;;;;;;157.25;85.35;;;;;;;0.29;63.13;94176.27;1656975;85;21623;-56
2021/12/27 07:38:16;;;;;;;99.50;54.77;;;;;;;0.30;62.93;94175.09;1631961;85;21717;-54
2021/12/27 07:40:43;;;;;;;66.92;38.75;;;;;;;0.34;62.77;94177.97;1673895;85;21120;-56
2021/12/27 07:43:09;;;;;;;88.75;49.65;;;;;;;0.38;61.99;94171.95;1656357;85;20977;-54
2021/12/27 07:45:36;;;;;;;93.07;52.73;;;;;;;0.44;62.09;94164.19;1648971;85;21040;-56
2021/12/27 07:48:07;;;;;;;94.90;53.25;;;;;;;0.60;61.97;94163.87;1656325;85;21028;-56
2021/12/27 07:50:38;;;;;;;95.20;56.68;;;;;;;0.70;61.51;94168.45;1659893;85;20969;-55
2021/12/27 07:53:05;;;;;;;121.70;69.42;;;;;;;0.77;61.26;94172.44;1673246;85;21783;-55
2021/12/27 07:55:32;;;;;;;135.72;80.65;;;;;;;0.85;61.23;94173.94;1674103;85;21013;-55
2021/12/27 07:57:59;;;;;;;132.07;79.25;;;;;;;0.87;61.49;94170.24;1669568;85;20988;-55
2021/12/27 08:00:26;;;;;;;142.28;82.47;;;;;;;0.92;61.48;94177.93;1643361;84;21012;-54
2021/12/27 08:02:54;;;;;;;156.95;89.67;;;;;;;0.93;61.69;94180.06;1661336;85;21112;-55
2021/12/27 08:05:21;;;;;;;167.75;93.50;;;;;;;1.08;61.45;94170.63;1655132;85;21164;-56
2021/12/27 08:07:50;;;;;;;150.10;87.88;;;;;;;1.18;61.26;94167.81;1656456;85;20965;-55
2021/12/27 08:10:17;;;;;;;193.20;128.18;;;;;;;1.31;60.92;94167.50;1668376;85;20997;-55
2021/12/27 08:12:45;;;;;;;130.50;76.50;;;;;;;1.46;60.49;94166.19;1664385;85;21052;-55
2021/12/27 08:15:15;;;;;;;129.45;77.55;;;;;;;1.50;59.70;94175.05;1668914;85;20981;-55
2021/12/27 08:17:42;;;;;;;108.12;65.57;;;;;;;1.44;59.65;94168.54;1654839;85;21100;-54
2021/12/27 08:20:10;;;;;;;110.20;66.82;;;;;;;1.50;59.56;94166.92;1650747;85;20965;-55
2021/12/27 08:22:37;;;;;;;99.42;59.15;;;;;;;1.47;59.17;94169.08;1667122;85;21489;-56
2021/12/27 08:25:07;;;;;;;98.17;57.17;;;;;;;1.39;58.88;94168.98;1671033;85;21069;-55
2021/12/27 08:27:36;;;;;;;61.40;37.60;;;;;;;1.37;59.26;94167.27;1659551;85;21021;-55
2021/12/27 08:30:05;;;;;;;50.65;31.48;;;;;;;1.39;58.49;94168.98;1656914;85;21907;-55
2021/12/27 08:32:34;;;;;;;36.05;24.05;;;;;;;1.43;58.61;94164.30;1656380;85;21006;-54
2021/12/27 08:35:01;;;;;;;47.17;27.82;;;;;;;1.50;57.87;94169.63;1646048;85;21064;-55
2021/12/27 08:37:31;;;;;;;40.20;25.15;;;;;;;1.47;57.57;94164.27;1664419;85;21020;-54
2021/12/27 08:40:04;;;;;;;45.50;30.35;;;;;;;1.51;57.74;94164.99;1648049;85;20969;-55
2021/12/27 08:42:35;;;;;;;51.28;32.03;;;;;;;1.56;57.83;94167.25;1678358;85;20993;-55
2021/12/27 08:45:03;;;;;;;149.42;75.00;;;;;;;1.55;57.36;94171.92;1665514;85;21401;-55
2021/12/27 08:47:31;;;;;;;120.13;74.95;;;;;;;1.45;57.62;94170.08;1619565;85;20989;-56
2021/12/27 08:49:59;;;;;;;113.80;60.70;;;;;;;1.34;57.74;94172.72;1666326;85;21048;-55
2021/12/27 08:52:29;;;;;;;58.00;35.88;;;;;;;1.15;58.08;94172.69;1646114;85;20993;-53
2021/12/27 08:54:57;;;;;;;43.63;28.17;;;;;;;1.10;58.47;94171.02;1643555;85;21158;-55
2021/12/27 08:57:25;;;;;;;49.20;30.90;;;;;;;1.09;58.61;94169.45;1633538;85;21085;-55
2021/12/27 08:59:51;;;;;;;40.45;26.17;;;;;;;1.12;58.58;94159.95;1665447;85;20977;-55
2021/12/27 09:02:18;;;;;;;36.00;23.70;;;;;;;1.16;58.50;94156.62;1639111;84;20968;-55
2021/12/27 09:04:47;;;;;;;47.05;30.43;;;;;;;1.09;58.64;94156.70;1652595;85;21035;-53
2021/12/27 09:07:15;;;;;;;54.88;34.80;;;;;;;1.02;59.00;94145.16;1645512;85;21348;-55
2021/12/27 09:09:44;;;;;;;49.75;30.60;;;;;;;1.00;59.16;94135.31;1659056;85;21129;-54
2021/12/27 09:12:11;;;;;;;62.05;38.65;;;;;;;0.99;59.25;94133.18;1656270;85;20988;-55
2021/12/27 09:14:42;;;;;;;68.00;41.48;;;;;;;0.99;59.38;94137.84;1619535;85;21152;-56
2021/12/27 09:17:10;;;;;;;59.93;37.30;;;;;;;1.04;59.54;94126.57;1651604;85;21054;-56
2021/12/27 09:19:40;;;;;;;64.05;37.83;;;;;;;1.12;59.72;94117.97;1654950;85;21173;-57
2021/12/27 09:22:08;;;;;;;49.10;31.05;;;;;;;1.22;59.54;94117.11;1664567;85;21076;-57
2021/12/27 09:24:36;;;;;;;35.48;23.57;;;;;;;1.24;59.72;94113.98;1653536;85;21024;-55
2021/12/27 09:27:04;;;;;;;29.57;20.70;;;;;;;1.22;59.61;94103.56;1650661;85;21104;-54
2021/12/27 09:29:32;;;;;;;34.08;23.98;;;;;;;1.19;59.86;94108.44;1645823;85;21067;-55
2021/12/27 09:32:03;;;;;;;48.48;27.67;;;;;;;1.28;59.77;94109.31;1652341;85;21968;-55
2021/12/27 09:34:31;;;;;;;59.93;34.83;;;;;;;1.31;59.64;94094.36;1615791;85;21146;-54
2021/12/27 09:36:58;;;;;;;58.40;29.95;;;;;;;1.26;59.42;94085.33;1648279;85;21532;-55
2021/12/27 09:39:25;;;;;;;46.23;28.25;;;;;;;1.26;59.68;94091.32;1666812;85;21472;-54
2021/12/27 09:41:52;;;;;;;36.33;23.12;;;;;;;1.24;59.55;94091.73;1668534;85;21092;-53
2021/12/27 09:44:18;;;;;;;198.62;96.78;;;;;;;1.27;59.69;94086.86;1664730;85;21062;-55
2021/12/27 09:46:46;;;;;;;81.50;46.58;;;;;;;1.22;59.48;94082.47;1644239;85;20981;-55
2021/12/27 09:49:15;;;;;;;54.00;32.73;;;;;;;1.09;59.40;94078.16;1666291;85;21240;-53
2021/12/27 09:51:44;;;;;;;30.23;20.23;;;;;;;0.96;59.45;94086.60;1657216;85;21021;-55
2021/12/27 09:54:11;;;;;;;32.60;20.55;;;;;;;0.94;59.95;94076.02;1665324;85;20981;-55
2021/12/27 09:56:38;;;;;;;31.42;19.87;;;;;;;1.03;59.73;94081.70;1657832;85;21440;-55
2021/12/27 09:59:05;;;;;;;25.10;17.98;;;;;;;1.04;59.54;94077.25;1653953;85;21041;-55
2021/12/27 10:01:32;;;;;;;36.50;23.30;;;;;;;1.09;59.50;94081.44;1652196;85;20973;-55
2021/12/27 10:04:00;;;;;;;58.17;30.17;;;;;;;1.07;59.71;94066.97;1671328;85;21028;-55
2021/12/27 10:06:28;;;;;;;41.08;25.45;;;;;;;1.05;59.85;94080.72;1666971;85;21072;-57
2021/12/27 10:08:57;;;;;;;43.58;25.20;;;;;;;1.05;60.12;94081.50;1663902;85;21224;-56
2021/12/27 10:11:31;;;;;;;44.58;26.33;;;;;;;1.16;60.04;94074.02;1651645;85;21576;-54
2021/12/27 10:14:11;;;;;;;26.42;18.35;;;;;;;1.20;60.18;94078.83;1646733;85;20989;-55
2021/12/27 10:16:45;;;;;;;31.37;21.20;;;;;;;1.30;59.98;94069.80;1678896;85;20997;-54
2021/12/27 10:19:15;;;;;;;33.70;22.48;;;;;;;1.50;59.21;94066.65;1661928;85;20980;-56
2021/12/27 10:21:44;;;;;;;31.62;21.50;;;;;;;1.53;59.04;94073.97;1659715;85;21802;-56
2021/12/27 10:24:29;;;;;;;31.68;21.55;;;;;;;1.45;58.93;94065.75;1664428;85;21037;-54
2021/12/27 10:26:59;;;;;;;32.73;20.80;;;;;;;1.38;59.44;94071.27;1663624;85;21540;-56
2021/12/27 10:29:36;;;;;;;30.72;20.72;;;;;;;1.49;59.35;94075.20;1657335;85;21551;-55
2021/12/27 10:32:16;;;;;;;44.55;25.82;;;;;;;1.47;59.05;94070.78;1638293;85;21093;-54
2021/12/27 10:34:51;;;;;;;31.05;21.37;;;;;;;1.39;59.44;94074.16;1660170;85;21383;-54
2021/12/27 10:37:24;;;;;;;27.40;18.35;;;;;;;1.47;59.54;94070.78;1640283;85;21418;-55
2021/12/27 10:40:12;;;;;;;27.70;18.30;;;;;;;1.49;59.56;94058.34;1647292;85;21057;-55
2021/12/27 10:42:48;;;;;;;27.17;18.15;;;;;;;1.49;59.44;94062.41;1673070;85;21021;-54
2021/12/27 10:45:19;;;;;;;31.85;19.77;;;;;;;1.45;59.52;94059.55;1662637;85;21071;-53
2021/12/27 10:47:54;;;;;;;34.48;23.27;;;;;;;1.34;59.75;94058.33;1662330;85;21102;-54
2021/12/27 10:50:35;;;;;;;50.65;28.07;;;;;;;1.26;60.26;94058.23;1652300;85;21025;-55
2021/12/27 10:53:06;;;;;;;59.83;33.40;;;;;;;1.29;59.87;94056.07;1637720;85;21505;-55
2021/12/27 10:55:39;;;;;;;;;;;;;;;1.19;60.05;94056.98;1651260;85;21029;-54
2021/12/27 10:58:25;;;;;;;51.65;26.77;;;;;;;1.10;60.07;94048.55;1649048;85;20716;-55
2021/12/27 11:01:04;;;;;;;34.55;22.58;;;;;;;0.97;60.58;94036.70;1652299;85;21154;-56
2021/12/27 11:03:37;;;;;;;44.53;26.23;;;;;;;1.12;60.82;94035.38;1649767;85;21073;-55
2021/12/27 11:06:06;;;;;;;54.03;29.85;;;;;;;1.19;60.33;94028.54;1658067;85;21151;-54
2021/12/27 11:08:35;;;;;;;49.58;29.48;;;;;;;1.25;60.20;94026.13;1649807;85;21028;-55
2021/12/27 11:11:03;;;;;;;31.33;21.87;;;;;;;1.32;60.28;94020.04;1660671;85;21064;-54
2021/12/27 11:13:30;;;;;;;70.22;37.65;;;;;;;1.40;60.04;94018.80;1673805;85;21157;-55
2021/12/27 11:15:58;;;;;;;57.50;33.45;;;;;;;1.44;60.19;94013.31;1673580;85;21090;-56
2021/12/27 11:18:26;;;;;;;104.10;59.83;;;;;;;1.51;59.85;94018.66;1646940;85;21065;-54
2021/12/27 11:20:57;;;;;;;52.00;33.80;;;;;;;1.48;60.05;94014.80;1662119;85;21238;-54
2021/12/27 11:23:28;;;;;;;49.13;28.92;;;;;;;1.54;59.67;94013.77;1638727;85;21587;-56
2021/12/27 11:26:07;;;;;;;43.87;27.60;;;;;;;1.56;59.51;94011.42;1669869;85;21373;-54
2021/12/27 11:28:39;;;;;;;67.47;38.67;;;;;;;1.57;59.13;94006.95;1651804;85;21389;-55